Henderson, KY (42419)

4:15 PM CDT on September 01, 2014 (GMT -0500)
Wilson Station | Change Station
CLOSE
Current Station
Personal Weather Station
Location: Henderson, KY
Elevation: 417 ft
Nearby Weather Stations
Active Advisory: Lake Wind Advisory

Elev 417 ft 37.79 °N, 87.66 °W | Updated 11 minutes ago

Mostly Cloudy
Mostly Cloudy
84.2 °F
Feels Like 91 °F
N
8.3
Wind Variable Wind from West

Today
High -- | Low -- °F
--% Chance of Precip.
Yesterday
High -- | Low -- °F
Precip. -- in
6:20 AM 7:19 PM
Waxing Crescent, 44% visible
Pressure 29.92 in
Visibility 10.0 miles
Clouds Mostly Cloudy 3700 ft
Mostly Cloudy 4400 ft
Heat Index 91 °F
Dew Point 73 °F
Humidity 69%
Rainfall 0.61 in
Snow Depth Not available.
UV 3 out of 12
Pollen 11.00 out of 12
Air Quality Not available.
Flu Activity Not available.
METAR KEHR 012055Z AUTO 23009KT 10SM BKN037 BKN044 30/22 A2992 RMK AO1 54000

More Conditions Fewer Conditions

Pressure 29.92 in
Visibility 10.0 miles
Clouds Mostly Cloudy 3700 ft
Mostly Cloudy 4400 ft
Heat Index 91 °F
Dew Point 73 °F
Humidity 69%
Rainfall 0.61 in
Snow Depth Not available.
UV 3 out of 12
Pollen 11.00 out of 12
Air Quality Not available.
Flu Activity Not available.
METAR KEHR 012055Z AUTO 23009KT 10SM BKN037 BKN044 30/22 A2992 RMK AO1 54000

More Conditions Fewer Conditions

10-Day Weather Forecast

Almanac

Astronomy

Sep. 01, 2014 Rise Set
Actual Time 6:20 AM CDT 7:19 PM CDT
Civil Twilight 5:53 AM CDT 7:46 PM CDT
Nautical Twilight 5:21 AM CDT 8:18 PM CDT
Astronomical Twilight 4:48 AM CDT 8:51 PM CDT
Moon 12:58 PM CDT 11:27 PM CDT
Length of Visible Light 13h 52m
Length of Day
12h 59m
Tomorrow will be 2m 19s shorter.
Waxing Crescent, 44% of the Moon is Illuminated
Today
Waxing Crescent
Sep 2
First Quarter
Sep 8
Full
Sep 15
Last Quarter
Sep 24
New

Today's Extremes

State Highs State Lows

Community

WunderPhotos

Upload Photos

1,749,409 photos uploaded!

WunderBlogs® & News

Nearby

Snow Depth

Station Depth Elevation
No new snow has been reported.

Earthquake Activity

City Distance Mag. Time & Date
Tiptonville, Tennessee 145 miles 2.9 11:19 PM CDT
2014-08-31
Minimum magnitude displayed is 2.5.

Coastal Water Temperatures

Place Temperature
No Stations Reporting

Nearby Weather Stations